Terminal Aerodrome Forecast
Issued by NWS Sterling, VA

Home | Current Version | Previous Version | Text Only | Print | Product List | Glossary On
Versions: 1 2 3 4 5 6 7 8 9 10 11 12 13 14 15 16 17 18 19 20 21 22 23 24
723
FTUS41 KLWX 252325
TAFMRB
TAF
KMRB 252325Z 2600/2624 25004KT 6SM -SHRA BR OVC060
     FM260300 25006KT P6SM BKN110
     FM261100 27006KT P6SM BKN040
     FM261400 29016G26KT P6SM BKN035
     FM262200 29012KT P6SM BKN050=

USA.gov is the U.S. government's official web portal to all federal, state and local government web resources and services.